sensor_id;sensor_type;location;lat;lon;timestamp;temperature;humidity
19363;DHT22;9817;50.80926400;5.16316200;2022-11-15T00:01:34;12.60;99.90
19363;DHT22;9817;50.80926400;5.16316200;2022-11-15T00:04:03;12.60;99.90
19363;DHT22;9817;50.80926400;5.16316200;2022-11-15T00:06:29;12.60;99.90
19363;DHT22;9817;50.80926400;5.16316200;2022-11-15T00:08:55;12.60;99.90
19363;DHT22;9817;50.80926400;5.16316200;2022-11-15T00:11:23;12.60;99.90
19363;DHT22;9817;50.80926400;5.16316200;2022-11-15T00:13:48;12.70;99.90
19363;DHT22;9817;50.80926400;5.16316200;2022-11-15T00:16:14;12.70;99.90
19363;DHT22;9817;50.80926400;5.16316200;2022-11-15T00:18:39;12.60;99.90
19363;DHT22;9817;50.80926400;5.16316200;2022-11-15T00:21:07;12.80;99.90
19363;DHT22;9817;50.80926400;5.16316200;2022-11-15T00:23:34;12.80;99.90
19363;DHT22;9817;50.80926400;5.16316200;2022-11-15T00:26:00;12.80;99.90
19363;DHT22;9817;50.80926400;5.16316200;2022-11-15T00:28:26;12.90;99.90
19363;DHT22;9817;50.80926400;5.16316200;2022-11-15T00:30:52;12.90;99.90
19363;DHT22;9817;50.80926400;5.16316200;2022-11-15T00:33:17;12.80;99.90
19363;DHT22;9817;50.80926400;5.16316200;2022-11-15T00:35:43;12.80;99.90
19363;DHT22;9817;50.80926400;5.16316200;2022-11-15T00:38:09;12.80;99.90
19363;DHT22;9817;50.80926400;5.16316200;2022-11-15T00:40:34;12.80;99.90
19363;DHT22;9817;50.80926400;5.16316200;2022-11-15T00:43:00;12.90;99.90
19363;DHT22;9817;50.80926400;5.16316200;2022-11-15T00:45:26;13.00;99.90
19363;DHT22;9817;50.80926400;5.16316200;2022-11-15T00:47:52;13.00;99.90
19363;DHT22;9817;50.80926400;5.16316200;2022-11-15T00:50:18;13.00;99.90
19363;DHT22;9817;50.80926400;5.16316200;2022-11-15T00:52:44;13.00;99.90
19363;DHT22;9817;50.80926400;5.16316200;2022-11-15T00:55:17;12.90;99.90
19363;DHT22;9817;50.80926400;5.16316200;2022-11-15T00:57:43;12.80;99.90
19363;DHT22;9817;50.80926400;5.16316200;2022-11-15T01:00:10;12.80;99.90
19363;DHT22;9817;50.80926400;5.16316200;2022-11-15T01:02:36;12.90;99.90
19363;DHT22;9817;50.80926400;5.16316200;2022-11-15T01:05:01;13.00;99.90
19363;DHT22;9817;50.80926400;5.16316200;2022-11-15T01:07:27;13.00;99.90
19363;DHT22;9817;50.80926400;5.16316200;2022-11-15T01:09:53;13.00;99.90
19363;DHT22;9817;50.80926400;5.16316200;2022-11-15T01:12:19;12.90;99.90
19363;DHT22;9817;50.80926400;5.16316200;2022-11-15T01:14:44;12.90;99.90
19363;DHT22;9817;50.80926400;5.16316200;2022-11-15T01:17:10;12.90;99.90
19363;DHT22;9817;50.80926400;5.16316200;2022-11-15T01:19:35;12.90;99.90
19363;DHT22;9817;50.80926400;5.16316200;2022-11-15T01:22:01;12.80;99.90
19363;DHT22;9817;50.80926400;5.16316200;2022-11-15T01:24:27;12.90;99.90
19363;DHT22;9817;50.80926400;5.16316200;2022-11-15T01:26:52;13.10;99.90
19363;DHT22;9817;50.80926400;5.16316200;2022-11-15T01:29:18;13.10;99.90
19363;DHT22;9817;50.80926400;5.16316200;2022-11-15T01:31:43;13.10;99.90
19363;DHT22;9817;50.80926400;5.16316200;2022-11-15T01:34:09;13.20;99.90
19363;DHT22;9817;50.80926400;5.16316200;2022-11-15T01:36:35;13.20;99.90
19363;DHT22;9817;50.80926400;5.16316200;2022-11-15T01:39:01;13.30;99.90
19363;DHT22;9817;50.80926400;5.16316200;2022-11-15T01:41:29;13.20;99.90
19363;DHT22;9817;50.80926400;5.16316200;2022-11-15T01:43:57;13.30;99.90
19363;DHT22;9817;50.80926400;5.16316200;2022-11-15T01:48:57;13.20;99.90
19363;DHT22;9817;50.80926400;5.16316200;2022-11-15T01:51:25;13.30;99.90
19363;DHT22;9817;50.80926400;5.16316200;2022-11-15T01:53:55;13.30;99.90
19363;DHT22;9817;50.80926400;5.16316200;2022-11-15T01:56:25;13.20;99.90
19363;DHT22;9817;50.80926400;5.16316200;2022-11-15T01:58:53;13.30;99.90
19363;DHT22;9817;50.80926400;5.16316200;2022-11-15T02:01:21;13.40;99.90
19363;DHT22;9817;50.80926400;5.16316200;2022-11-15T02:03:56;13.40;99.90
19363;DHT22;9817;50.80926400;5.16316200;2022-11-15T02:06:23;13.30;99.90
19363;DHT22;9817;50.80926400;5.16316200;2022-11-15T02:08:49;13.30;99.90
19363;DHT22;9817;50.80926400;5.16316200;2022-11-15T02:11:15;13.40;99.90
19363;DHT22;9817;50.80926400;5.16316200;2022-11-15T02:13:41;13.40;99.90
19363;DHT22;9817;50.80926400;5.16316200;2022-11-15T02:16:18;13.30;99.90
19363;DHT22;9817;50.80926400;5.16316200;2022-11-15T02:18:55;13.40;99.90
19363;DHT22;9817;50.80926400;5.16316200;2022-11-15T02:32:13;13.60;99.90
19363;DHT22;9817;50.80926400;5.16316200;2022-11-15T02:35:00;13.70;99.90
19363;DHT22;9817;50.80926400;5.16316200;2022-11-15T02:42:47;13.70;99.90
19363;DHT22;9817;50.80926400;5.16316200;2022-11-15T02:45:44;13.60;99.90
19363;DHT22;9817;50.80926400;5.16316200;2022-11-15T02:48:12;13.70;99.90
19363;DHT22;9817;50.80926400;5.16316200;2022-11-15T02:50:38;13.70;99.90
19363;DHT22;9817;50.80926400;5.16316200;2022-11-15T02:53:04;13.80;99.90
19363;DHT22;9817;50.80926400;5.16316200;2022-11-15T02:55:33;13.80;99.90
19363;DHT22;9817;50.80926400;5.16316200;2022-11-15T03:01:03;13.80;99.90
19363;DHT22;9817;50.80926400;5.16316200;2022-11-15T03:09:55;13.80;99.90
19363;DHT22;9817;50.80926400;5.16316200;2022-11-15T03:12:48;13.70;99.90
19363;DHT22;9817;50.80926400;5.16316200;2022-11-15T03:15:20;13.70;99.90
19363;DHT22;9817;50.80926400;5.16316200;2022-11-15T03:18:04;13.70;99.90
19363;DHT22;9817;50.80926400;5.16316200;2022-11-15T03:20:33;13.80;99.90
19363;DHT22;9817;50.80926400;5.16316200;2022-11-15T03:23:10;13.80;99.90
19363;DHT22;9817;50.80926400;5.16316200;2022-11-15T03:25:41;13.70;99.90
19363;DHT22;9817;50.80926400;5.16316200;2022-11-15T03:28:10;13.70;99.90
19363;DHT22;9817;50.80926400;5.16316200;2022-11-15T03:30:39;13.70;99.90
19363;DHT22;9817;50.80926400;5.16316200;2022-11-15T03:33:06;13.70;99.90
19363;DHT22;9817;50.80926400;5.16316200;2022-11-15T03:35:38;13.70;99.90
19363;DHT22;9817;50.80926400;5.16316200;2022-11-15T03:38:26;13.60;99.90
19363;DHT22;9817;50.80926400;5.16316200;2022-11-15T03:41:07;13.70;99.90
19363;DHT22;9817;50.80926400;5.16316200;2022-11-15T03:46:25;13.70;99.90
19363;DHT22;9817;50.80926400;5.16316200;2022-11-15T03:48:54;13.70;99.90
19363;DHT22;9817;50.80926400;5.16316200;2022-11-15T03:51:22;13.80;99.90
19363;DHT22;9817;50.80926400;5.16316200;2022-11-15T03:53:48;13.70;99.90
19363;DHT22;9817;50.80926400;5.16316200;2022-11-15T03:56:13;13.70;99.90
19363;DHT22;9817;50.80926400;5.16316200;2022-11-15T03:58:39;13.70;99.90
19363;DHT22;9817;50.80926400;5.16316200;2022-11-15T04:01:04;13.70;99.90
19363;DHT22;9817;50.80926400;5.16316200;2022-11-15T04:03:30;13.60;99.90
19363;DHT22;9817;50.80926400;5.16316200;2022-11-15T04:05:56;13.80;99.90
19363;DHT22;9817;50.80926400;5.16316200;2022-11-15T04:08:21;13.70;99.90
19363;DHT22;9817;50.80926400;5.16316200;2022-11-15T04:10:49;13.90;99.90
19363;DHT22;9817;50.80926400;5.16316200;2022-11-15T04:13:14;13.80;99.90
19363;DHT22;9817;50.80926400;5.16316200;2022-11-15T04:15:40;13.90;99.90
19363;DHT22;9817;50.80926400;5.16316200;2022-11-15T04:18:05;13.80;99.90
19363;DHT22;9817;50.80926400;5.16316200;2022-11-15T04:20:31;13.70;99.90
19363;DHT22;9817;50.80926400;5.16316200;2022-11-15T04:23:18;13.60;99.90
19363;DHT22;9817;50.80926400;5.16316200;2022-11-15T04:26:09;13.60;99.90
19363;DHT22;9817;50.80926400;5.16316200;2022-11-15T04:28:36;13.70;99.90
19363;DHT22;9817;50.80926400;5.16316200;2022-11-15T04:31:22;13.80;99.90
19363;DHT22;9817;50.80926400;5.16316200;2022-11-15T04:33:47;13.70;99.90
19363;DHT22;9817;50.80926400;5.16316200;2022-11-15T04:36:13;13.60;99.90
19363;DHT22;9817;50.80926400;5.16316200;2022-11-15T04:38:57;13.50;99.90
19363;DHT22;9817;50.80926400;5.16316200;2022-11-15T04:41:22;13.40;99.90
19363;DHT22;9817;50.80926400;5.16316200;2022-11-15T04:43:48;13.40;99.90
19363;DHT22;9817;50.80926400;5.16316200;2022-11-15T04:46:14;13.40;99.90
19363;DHT22;9817;50.80926400;5.16316200;2022-11-15T04:48:39;13.20;99.90
19363;DHT22;9817;50.80926400;5.16316200;2022-11-15T04:51:05;13.00;99.90
19363;DHT22;9817;50.80926400;5.16316200;2022-11-15T04:53:30;13.00;99.90
19363;DHT22;9817;50.80926400;5.16316200;2022-11-15T04:55:56;12.90;99.90
19363;DHT22;9817;50.80926400;5.16316200;2022-11-15T04:58:22;12.80;99.90
19363;DHT22;9817;50.80926400;5.16316200;2022-11-15T05:00:47;12.80;99.90
19363;DHT22;9817;50.80926400;5.16316200;2022-11-15T05:03:13;12.80;99.90
19363;DHT22;9817;50.80926400;5.16316200;2022-11-15T05:05:58;12.90;99.90
19363;DHT22;9817;50.80926400;5.16316200;2022-11-15T05:08:24;12.70;99.90
19363;DHT22;9817;50.80926400;5.16316200;2022-11-15T05:10:50;12.60;99.90
19363;DHT22;9817;50.80926400;5.16316200;2022-11-15T05:13:16;12.70;99.90
19363;DHT22;9817;50.80926400;5.16316200;2022-11-15T05:15:41;12.70;99.90
19363;DHT22;9817;50.80926400;5.16316200;2022-11-15T05:18:07;12.70;99.90
19363;DHT22;9817;50.80926400;5.16316200;2022-11-15T05:20:33;12.70;99.90
19363;DHT22;9817;50.80926400;5.16316200;2022-11-15T05:26:21;12.70;99.90
19363;DHT22;9817;50.80926400;5.16316200;2022-11-15T05:28:46;12.70;99.90
19363;DHT22;9817;50.80926400;5.16316200;2022-11-15T05:31:16;12.70;99.90
19363;DHT22;9817;50.80926400;5.16316200;2022-11-15T05:33:43;12.60;99.90
19363;DHT22;9817;50.80926400;5.16316200;2022-11-15T05:36:27;12.50;99.90
19363;DHT22;9817;50.80926400;5.16316200;2022-11-15T05:38:54;12.50;99.90
19363;DHT22;9817;50.80926400;5.16316200;2022-11-15T05:41:24;12.50;99.90
19363;DHT22;9817;50.80926400;5.16316200;2022-11-15T05:43:51;12.50;99.90
19363;DHT22;9817;50.80926400;5.16316200;2022-11-15T05:46:17;12.40;99.90
19363;DHT22;9817;50.80926400;5.16316200;2022-11-15T05:48:46;12.30;99.90
19363;DHT22;9817;50.80926400;5.16316200;2022-11-15T05:51:14;12.30;99.90
19363;DHT22;9817;50.80926400;5.16316200;2022-11-15T05:53:41;12.40;99.90
19363;DHT22;9817;50.80926400;5.16316200;2022-11-15T05:56:08;12.30;99.90
19363;DHT22;9817;50.80926400;5.16316200;2022-11-15T05:58:34;12.20;99.90
19363;DHT22;9817;50.80926400;5.16316200;2022-11-15T06:01:00;12.10;99.90
19363;DHT22;9817;50.80926400;5.16316200;2022-11-15T06:03:26;12.20;99.90
19363;DHT22;9817;50.80926400;5.16316200;2022-11-15T06:05:52;12.20;99.90
19363;DHT22;9817;50.80926400;5.16316200;2022-11-15T06:08:17;12.20;99.90
19363;DHT22;9817;50.80926400;5.16316200;2022-11-15T06:10:43;12.30;99.90
19363;DHT22;9817;50.80926400;5.16316200;2022-11-15T06:13:09;12.30;99.90
19363;DHT22;9817;50.80926400;5.16316200;2022-11-15T06:15:34;12.40;99.90
19363;DHT22;9817;50.80926400;5.16316200;2022-11-15T06:18:00;12.40;99.90
19363;DHT22;9817;50.80926400;5.16316200;2022-11-15T06:20:27;12.40;99.90
19363;DHT22;9817;50.80926400;5.16316200;2022-11-15T06:23:01;12.30;99.90
19363;DHT22;9817;50.80926400;5.16316200;2022-11-15T06:25:27;12.30;99.90
19363;DHT22;9817;50.80926400;5.16316200;2022-11-15T06:27:59;12.10;99.90
19363;DHT22;9817;50.80926400;5.16316200;2022-11-15T06:30:25;12.10;99.90
19363;DHT22;9817;50.80926400;5.16316200;2022-11-15T06:32:57;12.00;99.90
19363;DHT22;9817;50.80926400;5.16316200;2022-11-15T06:35:23;11.80;99.90
19363;DHT22;9817;50.80926400;5.16316200;2022-11-15T06:37:49;11.70;99.90
19363;DHT22;9817;50.80926400;5.16316200;2022-11-15T06:40:15;11.50;99.90
19363;DHT22;9817;50.80926400;5.16316200;2022-11-15T06:42:40;11.60;99.90
19363;DHT22;9817;50.80926400;5.16316200;2022-11-15T06:45:06;11.60;99.90
19363;DHT22;9817;50.80926400;5.16316200;2022-11-15T06:47:32;11.70;99.90
19363;DHT22;9817;50.80926400;5.16316200;2022-11-15T06:49:58;11.50;99.90
19363;DHT22;9817;50.80926400;5.16316200;2022-11-15T06:52:23;11.50;99.90
19363;DHT22;9817;50.80926400;5.16316200;2022-11-15T06:54:49;11.60;99.90
19363;DHT22;9817;50.80926400;5.16316200;2022-11-15T06:57:14;11.40;99.90
19363;DHT22;9817;50.80926400;5.16316200;2022-11-15T06:59:40;11.30;99.90
19363;DHT22;9817;50.80926400;5.16316200;2022-11-15T07:02:06;11.40;99.90
19363;DHT22;9817;50.80926400;5.16316200;2022-11-15T07:04:31;11.40;99.90
19363;DHT22;9817;50.80926400;5.16316200;2022-11-15T07:06:57;11.50;99.90
19363;DHT22;9817;50.80926400;5.16316200;2022-11-15T07:09:22;11.50;99.90
19363;DHT22;9817;50.80926400;5.16316200;2022-11-15T07:11:48;11.60;99.90
19363;DHT22;9817;50.80926400;5.16316200;2022-11-15T07:14:13;11.50;99.90
19363;DHT22;9817;50.80926400;5.16316200;2022-11-15T07:16:39;11.40;99.90
19363;DHT22;9817;50.80926400;5.16316200;2022-11-15T07:19:05;11.40;99.90
19363;DHT22;9817;50.80926400;5.16316200;2022-11-15T07:21:30;11.40;99.90
19363;DHT22;9817;50.80926400;5.16316200;2022-11-15T07:23:56;11.30;99.90
19363;DHT22;9817;50.80926400;5.16316200;2022-11-15T07:26:21;11.20;99.90
19363;DHT22;9817;50.80926400;5.16316200;2022-11-15T07:28:47;11.30;99.90
19363;DHT22;9817;50.80926400;5.16316200;2022-11-15T07:31:13;11.10;99.90
19363;DHT22;9817;50.80926400;5.16316200;2022-11-15T07:33:38;11.10;99.90
19363;DHT22;9817;50.80926400;5.16316200;2022-11-15T07:36:05;11.10;99.90
19363;DHT22;9817;50.80926400;5.16316200;2022-11-15T07:38:32;11.20;99.90
19363;DHT22;9817;50.80926400;5.16316200;2022-11-15T07:40:59;11.10;99.90
19363;DHT22;9817;50.80926400;5.16316200;2022-11-15T07:43:25;11.00;99.90
19363;DHT22;9817;50.80926400;5.16316200;2022-11-15T07:45:53;11.00;99.90
19363;DHT22;9817;50.80926400;5.16316200;2022-11-15T07:48:19;11.10;99.90
19363;DHT22;9817;50.80926400;5.16316200;2022-11-15T07:50:44;11.10;99.90
19363;DHT22;9817;50.80926400;5.16316200;2022-11-15T07:53:10;11.20;99.90
19363;DHT22;9817;50.80926400;5.16316200;2022-11-15T07:55:36;11.20;99.90
19363;DHT22;9817;50.80926400;5.16316200;2022-11-15T07:58:08;11.20;99.90
19363;DHT22;9817;50.80926400;5.16316200;2022-11-15T08:00:35;11.20;99.90
19363;DHT22;9817;50.80926400;5.16316200;2022-11-15T08:05:29;11.20;99.90
19363;DHT22;9817;50.80926400;5.16316200;2022-11-15T08:07:57;11.30;99.90
19363;DHT22;9817;50.80926400;5.16316200;2022-11-15T08:10:23;11.30;99.90
19363;DHT22;9817;50.80926400;5.16316200;2022-11-15T08:13:06;11.30;99.90
19363;DHT22;9817;50.80926400;5.16316200;2022-11-15T08:15:33;11.30;99.90
19363;DHT22;9817;50.80926400;5.16316200;2022-11-15T08:18:01;11.20;99.90
19363;DHT22;9817;50.80926400;5.16316200;2022-11-15T08:20:28;11.30;99.90
19363;DHT22;9817;50.80926400;5.16316200;2022-11-15T08:22:58;11.60;99.90
19363;DHT22;9817;50.80926400;5.16316200;2022-11-15T08:25:24;11.80;99.90
19363;DHT22;9817;50.80926400;5.16316200;2022-11-15T08:27:56;11.70;99.90
19363;DHT22;9817;50.80926400;5.16316200;2022-11-15T08:30:22;11.80;99.90
19363;DHT22;9817;50.80926400;5.16316200;2022-11-15T08:32:49;11.70;99.90
19363;DHT22;9817;50.80926400;5.16316200;2022-11-15T08:35:16;11.50;99.90
19363;DHT22;9817;50.80926400;5.16316200;2022-11-15T08:37:45;11.50;99.90
19363;DHT22;9817;50.80926400;5.16316200;2022-11-15T08:40:10;11.50;99.90
19363;DHT22;9817;50.80926400;5.16316200;2022-11-15T08:42:36;11.30;99.90
19363;DHT22;9817;50.80926400;5.16316200;2022-11-15T08:45:03;11.30;99.90
19363;DHT22;9817;50.80926400;5.16316200;2022-11-15T08:47:28;11.40;99.90
19363;DHT22;9817;50.80926400;5.16316200;2022-11-15T08:49:54;11.50;99.90
19363;DHT22;9817;50.80926400;5.16316200;2022-11-15T08:52:20;11.60;99.90
19363;DHT22;9817;50.80926400;5.16316200;2022-11-15T08:54:46;11.60;99.90
19363;DHT22;9817;50.80926400;5.16316200;2022-11-15T08:57:12;11.50;99.90
19363;DHT22;9817;50.80926400;5.16316200;2022-11-15T08:59:37;11.50;99.90
19363;DHT22;9817;50.80926400;5.16316200;2022-11-15T09:02:04;11.50;99.90
19363;DHT22;9817;50.80926400;5.16316200;2022-11-15T09:04:30;11.60;99.90
19363;DHT22;9817;50.80926400;5.16316200;2022-11-15T09:06:55;11.70;99.90
19363;DHT22;9817;50.80926400;5.16316200;2022-11-15T09:09:21;11.80;99.90
19363;DHT22;9817;50.80926400;5.16316200;2022-11-15T09:11:47;11.80;99.90
19363;DHT22;9817;50.80926400;5.16316200;2022-11-15T09:14:13;11.80;99.90
19363;DHT22;9817;50.80926400;5.16316200;2022-11-15T09:16:39;11.90;99.90
19363;DHT22;9817;50.80926400;5.16316200;2022-11-15T09:19:04;11.80;99.90
19363;DHT22;9817;50.80926400;5.16316200;2022-11-15T09:21:30;11.80;99.90
19363;DHT22;9817;50.80926400;5.16316200;2022-11-15T09:23:56;11.90;99.90
19363;DHT22;9817;50.80926400;5.16316200;2022-11-15T09:26:21;12.00;99.90
19363;DHT22;9817;50.80926400;5.16316200;2022-11-15T09:28:47;12.00;99.90
19363;DHT22;9817;50.80926400;5.16316200;2022-11-15T09:31:13;12.10;99.90
19363;DHT22;9817;50.80926400;5.16316200;2022-11-15T09:33:38;12.10;99.90
19363;DHT22;9817;50.80926400;5.16316200;2022-11-15T09:36:06;12.30;99.90
19363;DHT22;9817;50.80926400;5.16316200;2022-11-15T09:38:32;12.40;99.90
19363;DHT22;9817;50.80926400;5.16316200;2022-11-15T09:49:21;12.70;99.90
19363;DHT22;9817;50.80926400;5.16316200;2022-11-15T09:51:49;12.80;99.90
19363;DHT22;9817;50.80926400;5.16316200;2022-11-15T09:54:32;12.80;99.90
19363;DHT22;9817;50.80926400;5.16316200;2022-11-15T10:04:41;13.30;99.90
19363;DHT22;9817;50.80926400;5.16316200;2022-11-15T10:07:18;13.30;99.90
19363;DHT22;9817;50.80926400;5.16316200;2022-11-15T10:12:54;13.10;99.90
19363;DHT22;9817;50.80926400;5.16316200;2022-11-15T10:15:20;13.00;99.90
19363;DHT22;9817;50.80926400;5.16316200;2022-11-15T10:20:26;13.00;99.90
19363;DHT22;9817;50.80926400;5.16316200;2022-11-15T10:22:59;13.00;99.90
19363;DHT22;9817;50.80926400;5.16316200;2022-11-15T10:25:27;12.90;99.90
19363;DHT22;9817;50.80926400;5.16316200;2022-11-15T10:28:11;13.10;99.90
19363;DHT22;9817;50.80926400;5.16316200;2022-11-15T10:30:41;13.40;99.90
19363;DHT22;9817;50.80926400;5.16316200;2022-11-15T10:39:04;13.60;99.90
19363;DHT22;9817;50.80926400;5.16316200;2022-11-15T10:41:32;13.70;99.90
19363;DHT22;9817;50.80926400;5.16316200;2022-11-15T10:44:31;13.60;99.90
19363;DHT22;9817;50.80926400;5.16316200;2022-11-15T10:52:13;13.80;99.90
19363;DHT22;9817;50.80926400;5.16316200;2022-11-15T10:54:44;14.10;99.90
19363;DHT22;9817;50.80926400;5.16316200;2022-11-15T10:57:20;14.10;99.90
19363;DHT22;9817;50.80926400;5.16316200;2022-11-15T10:59:52;14.10;99.90
19363;DHT22;9817;50.80926400;5.16316200;2022-11-15T11:02:39;14.30;99.90
19363;DHT22;9817;50.80926400;5.16316200;2022-11-15T11:08:24;14.40;99.90
19363;DHT22;9817;50.80926400;5.16316200;2022-11-15T11:10:56;14.30;99.90
19363;DHT22;9817;50.80926400;5.16316200;2022-11-15T11:13:28;14.60;99.90
19363;DHT22;9817;50.80926400;5.16316200;2022-11-15T11:19:02;14.80;99.90
19363;DHT22;9817;50.80926400;5.16316200;2022-11-15T11:21:51;14.80;99.90
19363;DHT22;9817;50.80926400;5.16316200;2022-11-15T11:37:52;14.50;99.90
19363;DHT22;9817;50.80926400;5.16316200;2022-11-15T11:40:28;14.50;99.90
19363;DHT22;9817;50.80926400;5.16316200;2022-11-15T11:48:46;14.60;99.90
19363;DHT22;9817;50.80926400;5.16316200;2022-11-15T11:53:56;14.70;99.90
19363;DHT22;9817;50.80926400;5.16316200;2022-11-15T11:56:29;14.80;99.90
19363;DHT22;9817;50.80926400;5.16316200;2022-11-15T11:59:34;14.90;99.90
19363;DHT22;9817;50.80926400;5.16316200;2022-11-15T12:02:23;14.80;99.90
19363;DHT22;9817;50.80926400;5.16316200;2022-11-15T12:04:52;15.00;99.90
19363;DHT22;9817;50.80926400;5.16316200;2022-11-15T12:07:27;15.10;99.90
19363;DHT22;9817;50.80926400;5.16316200;2022-11-15T12:09:59;14.90;99.90
19363;DHT22;9817;50.80926400;5.16316200;2022-11-15T12:12:31;14.90;99.90
19363;DHT22;9817;50.80926400;5.16316200;2022-11-15T12:17:34;14.90;99.90
19363;DHT22;9817;50.80926400;5.16316200;2022-11-15T12:20:17;15.00;99.90
19363;DHT22;9817;50.80926400;5.16316200;2022-11-15T12:22:58;15.10;99.90
19363;DHT22;9817;50.80926400;5.16316200;2022-11-15T12:25:45;15.30;99.90
19363;DHT22;9817;50.80926400;5.16316200;2022-11-15T12:31:23;15.10;99.90
19363;DHT22;9817;50.80926400;5.16316200;2022-11-15T12:33:55;15.10;99.90
19363;DHT22;9817;50.80926400;5.16316200;2022-11-15T12:41:20;15.10;99.90
19363;DHT22;9817;50.80926400;5.16316200;2022-11-15T12:43:48;15.20;99.90
19363;DHT22;9817;50.80926400;5.16316200;2022-11-15T12:49:24;15.50;99.90
19363;DHT22;9817;50.80926400;5.16316200;2022-11-15T13:02:25;15.50;99.90
19363;DHT22;9817;50.80926400;5.16316200;2022-11-15T13:04:53;15.30;99.90
19363;DHT22;9817;50.80926400;5.16316200;2022-11-15T13:10:45;15.10;99.90
19363;DHT22;9817;50.80926400;5.16316200;2022-11-15T13:22:46;15.00;99.90
19363;DHT22;9817;50.80926400;5.16316200;2022-11-15T13:25:53;15.10;99.90
19363;DHT22;9817;50.80926400;5.16316200;2022-11-15T13:28:26;15.20;99.90
19363;DHT22;9817;50.80926400;5.16316200;2022-11-15T13:30:55;15.20;99.90
19363;DHT22;9817;50.80926400;5.16316200;2022-11-15T13:36:30;15.30;99.90
19363;DHT22;9817;50.80926400;5.16316200;2022-11-15T13:39:04;15.40;99.90
19363;DHT22;9817;50.80926400;5.16316200;2022-11-15T13:41:36;15.40;99.90
19363;DHT22;9817;50.80926400;5.16316200;2022-11-15T13:44:03;15.50;99.90
19363;DHT22;9817;50.80926400;5.16316200;2022-11-15T13:46:29;15.40;99.90
19363;DHT22;9817;50.80926400;5.16316200;2022-11-15T13:49:04;15.40;99.90
19363;DHT22;9817;50.80926400;5.16316200;2022-11-15T13:51:44;15.40;99.90
19363;DHT22;9817;50.80926400;5.16316200;2022-11-15T13:54:33;15.30;99.90
19363;DHT22;9817;50.80926400;5.16316200;2022-11-15T13:57:03;15.40;99.90
19363;DHT22;9817;50.80926400;5.16316200;2022-11-15T13:59:33;15.60;99.90
19363;DHT22;9817;50.80926400;5.16316200;2022-11-15T14:02:03;15.50;99.90
19363;DHT22;9817;50.80926400;5.16316200;2022-11-15T14:04:38;15.50;99.90
19363;DHT22;9817;50.80926400;5.16316200;2022-11-15T14:07:04;15.50;99.90
19363;DHT22;9817;50.80926400;5.16316200;2022-11-15T14:09:35;15.40;99.90
19363;DHT22;9817;50.80926400;5.16316200;2022-11-15T14:12:20;15.30;99.90
19363;DHT22;9817;50.80926400;5.16316200;2022-11-15T14:14:47;15.30;99.90
19363;DHT22;9817;50.80926400;5.16316200;2022-11-15T14:17:21;15.30;99.90
19363;DHT22;9817;50.80926400;5.16316200;2022-11-15T14:19:49;15.20;99.90
19363;DHT22;9817;50.80926400;5.16316200;2022-11-15T14:22:18;15.20;99.90
19363;DHT22;9817;50.80926400;5.16316200;2022-11-15T14:24:55;15.10;99.90
19363;DHT22;9817;50.80926400;5.16316200;2022-11-15T14:27:29;15.20;99.90
19363;DHT22;9817;50.80926400;5.16316200;2022-11-15T14:29:55;15.10;99.90
19363;DHT22;9817;50.80926400;5.16316200;2022-11-15T14:35:02;15.00;99.90
19363;DHT22;9817;50.80926400;5.16316200;2022-11-15T14:37:31;15.20;99.90
19363;DHT22;9817;50.80926400;5.16316200;2022-11-15T14:39:59;15.20;99.90
19363;DHT22;9817;50.80926400;5.16316200;2022-11-15T14:42:25;15.20;99.90
19363;DHT22;9817;50.80926400;5.16316200;2022-11-15T14:44:51;15.20;99.90
19363;DHT22;9817;50.80926400;5.16316200;2022-11-15T14:47:17;15.20;99.90
19363;DHT22;9817;50.80926400;5.16316200;2022-11-15T14:49:43;15.20;99.90
19363;DHT22;9817;50.80926400;5.16316200;2022-11-15T14:52:24;15.10;99.90
19363;DHT22;9817;50.80926400;5.16316200;2022-11-15T14:54:51;15.00;99.90
19363;DHT22;9817;50.80926400;5.16316200;2022-11-15T14:57:16;15.10;99.90
19363;DHT22;9817;50.80926400;5.16316200;2022-11-15T14:59:42;15.20;99.90
19363;DHT22;9817;50.80926400;5.16316200;2022-11-15T15:02:18;15.10;99.90
19363;DHT22;9817;50.80926400;5.16316200;2022-11-15T15:04:45;14.90;99.90
19363;DHT22;9817;50.80926400;5.16316200;2022-11-15T15:07:10;15.10;99.90
19363;DHT22;9817;50.80926400;5.16316200;2022-11-15T15:09:36;15.00;99.90
19363;DHT22;9817;50.80926400;5.16316200;2022-11-15T15:12:02;14.90;99.90
19363;DHT22;9817;50.80926400;5.16316200;2022-11-15T15:14:27;14.80;99.90
19363;DHT22;9817;50.80926400;5.16316200;2022-11-15T15:16:53;14.80;99.90
19363;DHT22;9817;50.80926400;5.16316200;2022-11-15T15:19:18;14.50;99.90
19363;DHT22;9817;50.80926400;5.16316200;2022-11-15T15:21:44;14.40;99.90
19363;DHT22;9817;50.80926400;5.16316200;2022-11-15T15:24:14;14.40;99.90
19363;DHT22;9817;50.80926400;5.16316200;2022-11-15T15:26:43;14.30;99.90
19363;DHT22;9817;50.80926400;5.16316200;2022-11-15T15:29:09;14.20;99.90
19363;DHT22;9817;50.80926400;5.16316200;2022-11-15T15:31:35;14.20;99.90
19363;DHT22;9817;50.80926400;5.16316200;2022-11-15T15:34:01;14.20;99.90
19363;DHT22;9817;50.80926400;5.16316200;2022-11-15T15:36:26;14.10;99.90
19363;DHT22;9817;50.80926400;5.16316200;2022-11-15T15:38:52;14.10;99.90
19363;DHT22;9817;50.80926400;5.16316200;2022-11-15T15:41:18;14.20;99.90
19363;DHT22;9817;50.80926400;5.16316200;2022-11-15T15:43:44;14.20;99.90
19363;DHT22;9817;50.80926400;5.16316200;2022-11-15T15:46:12;14.20;99.90
19363;DHT22;9817;50.80926400;5.16316200;2022-11-15T15:48:39;14.20;99.90
19363;DHT22;9817;50.80926400;5.16316200;2022-11-15T15:51:05;14.20;99.90
19363;DHT22;9817;50.80926400;5.16316200;2022-11-15T15:53:31;14.20;99.90
19363;DHT22;9817;50.80926400;5.16316200;2022-11-15T15:55:57;14.20;99.90
19363;DHT22;9817;50.80926400;5.16316200;2022-11-15T15:58:22;14.30;99.90
19363;DHT22;9817;50.80926400;5.16316200;2022-11-15T16:00:48;14.30;99.90
19363;DHT22;9817;50.80926400;5.16316200;2022-11-15T16:03:13;14.20;99.90
19363;DHT22;9817;50.80926400;5.16316200;2022-11-15T16:05:39;14.10;99.90